Time;durP1;ratioP1;P1;durP2;ratioP2;P2;SDS_P1;SDS_P2;PMS_P1;PMS_P2;Temp;Humidity;BMP_temperature;BMP_pressure;BME280_temperature;BME280_humidity;BME280_pressure;Samples;Min_cycle;Max_cycle;Signal;HPM_P1;HPM_P2
2022/07/29 00:00:20;;;;;;;9.80;5.72;;;29.10;95.10;;;;;;5136889;27;20061;-70
2022/07/29 00:02:48;;;;;;;8.18;5.40;;;29.20;95.10;;;;;;5154546;27;20393;-70
2022/07/29 00:05:15;;;;;;;9.23;4.85;;;29.20;95.10;;;;;;5153849;27;20042;-70
2022/07/29 00:07:43;;;;;;;7.82;5.68;;;29.10;95.10;;;;;;5129377;27;20133;-70
2022/07/29 00:10:10;;;;;;;7.82;5.93;;;29.10;95.10;;;;;;5146053;27;20099;-70
2022/07/29 00:12:38;;;;;;;11.60;6.30;;;29.10;95.20;;;;;;5160116;27;20492;-70
2022/07/29 00:15:06;;;;;;;12.60;5.88;;;29.00;95.30;;;;;;5157349;27;20038;-70
2022/07/29 00:17:34;;;;;;;10.32;5.53;;;28.90;95.40;;;;;;5123255;27;20058;-70
2022/07/29 00:20:03;;;;;;;8.45;6.35;;;28.90;95.50;;;;;;5144594;27;20126;-70
2022/07/29 00:22:30;;;;;;;8.02;5.18;;;28.80;95.60;;;;;;5142229;27;20067;-71
2022/07/29 00:24:58;;;;;;;8.80;5.75;;;28.80;95.70;;;;;;5123263;27;20061;-71
2022/07/29 00:27:26;;;;;;;11.15;6.05;;;28.70;95.80;;;;;;5137260;27;20039;-72
2022/07/29 00:29:54;;;;;;;8.68;6.28;;;28.70;95.90;;;;;;5109612;27;20061;-71
2022/07/29 00:32:22;;;;;;;8.48;5.57;;;28.70;96.00;;;;;;5153737;27;20046;-73
2022/07/29 00:37:35;;;;;;;9.68;5.97;;;28.60;96.20;;;;;;5173008;27;20076;-71
2022/07/29 00:40:03;;;;;;;10.82;6.68;;;28.50;96.30;;;;;;5149731;27;20050;-71
2022/07/29 00:42:40;;;;;;;10.13;6.20;;;28.50;96.40;;;;;;5151605;27;20575;-71
2022/07/29 00:45:08;;;;;;;9.00;6.30;;;28.50;96.40;;;;;;5133030;27;20065;-71
2022/07/29 00:47:36;;;;;;;9.10;6.90;;;28.50;96.50;;;;;;5151213;27;20047;-71
2022/07/29 00:50:05;;;;;;;8.68;5.97;;;28.50;96.50;;;;;;5149721;27;20049;-71
2022/07/29 00:52:35;;;;;;;11.02;6.07;;;28.50;96.60;;;;;;5115909;27;20812;-72
2022/07/29 00:55:08;;;;;;;7.47;5.72;;;28.50;96.70;;;;;;5151267;27;20038;-71
2022/07/29 00:57:36;;;;;;;10.15;6.13;;;28.40;96.70;;;;;;5146190;27;20051;-71
2022/07/29 01:00:06;;;;;;;11.00;6.10;;;28.40;96.80;;;;;;5149489;27;20046;-71
2022/07/29 01:02:34;;;;;;;6.95;5.85;;;28.30;96.90;;;;;;5115826;27;20054;-71
2022/07/29 01:05:03;;;;;;;9.02;5.97;;;28.40;97.00;;;;;;5148862;27;20039;-71
2022/07/29 01:07:33;;;;;;;8.68;5.70;;;28.30;97.00;;;;;;5130190;27;20510;-71
2022/07/29 01:10:03;;;;;;;7.32;5.25;;;28.30;97.00;;;;;;5129935;27;20069;-71
2022/07/29 01:12:33;;;;;;;6.43;5.20;;;28.30;97.10;;;;;;5133003;27;20848;-71
2022/07/29 01:15:06;;;;;;;7.47;5.60;;;28.20;97.20;;;;;;5133326;27;20047;-71
2022/07/29 01:17:56;;;;;;;9.52;6.10;;;28.20;97.30;;;;;;5132998;27;20092;-71
2022/07/29 01:20:26;;;;;;;13.00;6.53;;;28.20;97.30;;;;;;5132790;27;20050;-71
2022/07/29 01:23:32;;;;;;;9.00;6.43;;;28.20;97.40;;;;;;5115576;27;20163;-72
2022/07/29 01:26:14;;;;;;;8.85;5.47;;;28.10;97.40;;;;;;5132158;27;20047;-72
2022/07/29 01:29:02;;;;;;;9.38;5.57;;;28.20;97.50;;;;;;5115646;27;20047;-72
2022/07/29 01:31:36;;;;;;;9.05;6.15;;;28.20;97.50;;;;;;5091682;27;20488;-72
2022/07/29 01:34:07;;;;;;;9.23;6.63;;;28.10;97.50;;;;;;5115546;27;20039;-72
2022/07/29 01:36:50;;;;;;;9.57;6.28;;;28.10;97.50;;;;;;5115826;27;20043;-72
2022/07/29 01:39:27;;;;;;;7.80;5.43;;;28.10;97.60;;;;;;5111956;28;20044;-71
2022/07/29 01:42:23;;;;;;;7.97;6.43;;;28.10;97.70;;;;;;5112715;28;20096;-71
2022/07/29 01:44:55;;;;;;;8.63;5.80;;;28.10;97.70;;;;;;5094682;28;20147;-72
2022/07/29 01:47:31;;;;;;;8.02;6.53;;;28.10;97.80;;;;;;5111493;28;20544;-72
2022/07/29 01:50:00;;;;;;;8.73;5.45;;;28.00;97.80;;;;;;5094493;28;20096;-72
2022/07/29 01:52:39;;;;;;;8.15;6.00;;;28.00;97.80;;;;;;5112930;28;20071;-72
2022/07/29 01:55:13;;;;;;;8.80;6.05;;;28.00;97.80;;;;;;5128497;27;20039;-72
2022/07/29 01:57:46;;;;;;;10.00;6.65;;;28.00;98.00;;;;;;5113105;28;20498;-72
2022/07/29 02:00:15;;;;;;;10.38;6.40;;;28.00;98.00;;;;;;5111512;28;20047;-71
2022/07/29 02:02:45;;;;;;;8.40;5.35;;;28.00;98.10;;;;;;5113226;27;20036;-71
2022/07/29 02:05:15;;;;;;;7.25;5.68;;;28.00;98.10;;;;;;5113165;28;20138;-72
2022/07/29 02:07:46;;;;;;;13.27;6.95;;;28.00;98.10;;;;;;5111393;28;20768;-72
2022/07/29 02:10:16;;;;;;;8.18;5.55;;;28.00;98.30;;;;;;5128365;27;20044;-71
2022/07/29 02:12:46;;;;;;;7.40;6.10;;;27.90;98.30;;;;;;5111415;28;20051;-72
2022/07/29 02:15:14;;;;;;;11.35;6.28;;;27.90;98.40;;;;;;5112411;28;20054;-72
2022/07/29 02:17:46;;;;;;;6.75;4.88;;;27.90;98.60;;;;;;5111244;28;20068;-72
2022/07/29 02:20:15;;;;;;;9.65;5.70;;;27.90;98.70;;;;;;5094462;28;20055;-72
2022/07/29 02:22:44;;;;;;;6.95;5.45;;;27.90;98.80;;;;;;5109873;28;20044;-71
2022/07/29 02:25:13;;;;;;;8.73;6.20;;;27.90;98.90;;;;;;5111243;28;20043;-71
2022/07/29 02:27:43;;;;;;;7.78;4.95;;;27.90;98.90;;;;;;5112129;28;20054;-72
2022/07/29 02:30:12;;;;;;;6.15;5.13;;;27.90;99.00;;;;;;5110848;28;20055;-72
2022/07/29 02:32:43;;;;;;;9.55;6.03;;;27.90;99.00;;;;;;5110923;28;20151;-72
2022/07/29 02:35:13;;;;;;;8.68;5.32;;;27.90;99.10;;;;;;5111852;28;20046;-72
2022/07/29 02:37:44;;;;;;;9.25;5.22;;;27.90;99.10;;;;;;5111075;28;20036;-72
2022/07/29 02:40:15;;;;;;;8.90;5.13;;;27.90;99.20;;;;;;5130634;27;20054;-71
2022/07/29 02:42:44;;;;;;;11.15;5.63;;;27.90;99.10;;;;;;5114443;27;20041;-72
2022/07/29 02:45:12;;;;;;;8.77;5.00;;;27.90;99.20;;;;;;5131491;27;20061;-71
2022/07/29 02:47:49;;;;;;;8.60;4.70;;;27.90;99.20;;;;;;5131262;27;20059;-72
2022/07/29 02:50:27;;;;;;;8.90;5.90;;;27.90;99.30;;;;;;5132138;27;20045;-72
2022/07/29 02:53:18;;;;;;;6.90;5.28;;;27.90;99.30;;;;;;5108216;27;20035;-72
2022/07/29 02:55:56;;;;;;;9.07;5.10;;;27.90;99.50;;;;;;5123317;27;20412;-72
2022/07/29 02:58:55;;;;;;;8.55;5.63;;;27.90;99.60;;;;;;5130995;27;20051;-71
2022/07/29 03:01:24;;;;;;;7.30;5.00;;;27.80;99.70;;;;;;5121420;27;20051;-71
2022/07/29 03:03:54;;;;;;;8.25;4.93;;;27.80;99.80;;;;;;5150950;27;20046;-71
2022/07/29 03:06:25;;;;;;;7.75;5.72;;;27.80;99.90;;;;;;5135006;27;20038;-71
2022/07/29 03:08:54;;;;;;;9.10;5.70;;;27.80;99.90;;;;;;5152169;27;20055;-72
2022/07/29 03:11:22;;;;;;;11.18;5.85;;;27.80;99.90;;;;;;5117626;27;20047;-71
2022/07/29 03:13:50;;;;;;;11.10;4.82;;;27.80;99.90;;;;;;5151288;27;20062;-71
2022/07/29 03:16:19;;;;;;;8.43;5.28;;;27.70;99.90;;;;;;5151583;27;20058;-72
2022/07/29 03:18:47;;;;;;;9.00;4.78;;;27.70;99.90;;;;;;5151634;27;20142;-72
2022/07/29 03:21:15;;;;;;;9.20;4.80;;;27.70;99.90;;;;;;5152723;27;20046;-72
2022/07/29 03:23:46;;;;;;;8.70;6.18;;;27.70;99.90;;;;;;5134158;27;20054;-72
2022/07/29 03:26:14;;;;;;;8.20;6.35;;;27.60;99.90;;;;;;5133806;27;20059;-71
2022/07/29 03:28:41;;;;;;;9.20;7.03;;;27.60;99.90;;;;;;5133896;27;20083;-71
2022/07/29 03:31:09;;;;;;;8.80;5.30;;;27.60;99.90;;;;;;5133276;27;20488;-72
2022/07/29 03:33:36;;;;;;;9.20;5.65;;;27.50;99.90;;;;;;5150503;27;20050;-72
2022/07/29 03:36:04;;;;;;;7.65;6.15;;;27.50;99.90;;;;;;5150989;27;20039;-72
2022/07/29 03:38:35;;;;;;;8.52;5.43;;;27.50;99.90;;;;;;5152192;27;20051;-72
2022/07/29 03:41:10;;;;;;;10.25;6.20;;;27.50;99.90;;;;;;5152225;27;20042;-72
2022/07/29 03:43:40;;;;;;;9.13;6.00;;;27.50;99.90;;;;;;5172798;27;20042;-71
2022/07/29 03:46:10;;;;;;;6.85;5.90;;;27.50;99.90;;;;;;5172590;27;20490;-72
2022/07/29 03:48:42;;;;;;;10.60;7.13;;;27.50;99.90;;;;;;5172389;27;20043;-72
2022/07/29 03:51:10;;;;;;;9.40;5.50;;;27.50;99.90;;;;;;5172451;27;20767;-72
2022/07/29 03:53:38;;;;;;;7.97;5.75;;;27.50;99.90;;;;;;5154428;27;20038;-72
2022/07/29 03:56:08;;;;;;;9.65;4.97;;;27.60;99.90;;;;;;5172581;27;20427;-71
2022/07/29 03:58:36;;;;;;;5.80;4.85;;;27.60;99.90;;;;;;5154395;27;20047;-72
2022/07/29 04:01:03;;;;;;;9.25;4.82;;;27.60;99.90;;;;;;5153885;27;20519;-72
2022/07/29 04:03:31;;;;;;;7.18;5.15;;;27.70;99.90;;;;;;5136519;27;20058;-71
2022/07/29 04:06:05;;;;;;;6.18;4.55;;;27.70;99.90;;;;;;5172524;27;20069;-72
2022/07/29 04:08:34;;;;;;;9.57;5.55;;;27.80;99.90;;;;;;5153849;27;20042;-72
2022/07/29 04:11:02;;;;;;;8.55;5.38;;;27.80;99.90;;;;;;5153933;27;20046;-72
2022/07/29 04:13:31;;;;;;;8.13;4.93;;;27.90;99.90;;;;;;5153918;27;20054;-72
2022/07/29 04:15:58;;;;;;;7.70;5.32;;;27.80;99.80;;;;;;5172293;27;20436;-72
2022/07/29 04:18:26;;;;;;;8.05;4.05;;;28.00;99.80;;;;;;5153290;27;20046;-72
2022/07/29 04:20:54;;;;;;;5.45;4.22;;;28.00;99.70;;;;;;5171911;27;20168;-72
2022/07/29 04:23:22;;;;;;;9.10;4.53;;;28.00;99.60;;;;;;5153843;27;20090;-72
2022/07/29 04:25:49;;;;;;;7.38;4.38;;;28.10;99.50;;;;;;5136480;27;20046;-71
2022/07/29 04:28:17;;;;;;;7.50;4.72;;;28.20;99.40;;;;;;5153164;27;20053;-72
2022/07/29 04:30:44;;;;;;;6.82;4.90;;;28.20;99.20;;;;;;5153140;27;20153;-72
2022/07/29 04:33:12;;;;;;;6.97;4.15;;;28.30;99.10;;;;;;5136465;27;20182;-72
2022/07/29 04:35:39;;;;;;;5.95;4.32;;;28.40;99.00;;;;;;5153577;27;20034;-71
2022/07/29 04:38:07;;;;;;;8.90;4.93;;;28.50;98.80;;;;;;5172326;27;20051;-72
2022/07/29 04:40:41;;;;;;;5.57;4.82;;;28.60;98.70;;;;;;5169942;27;20081;-72
2022/07/29 04:43:08;;;;;;;6.80;4.85;;;28.70;98.50;;;;;;5136450;27;20448;-71
2022/07/29 04:45:36;;;;;;;8.43;6.35;;;28.80;98.40;;;;;;5155573;27;20050;-72
2022/07/29 04:48:04;;;;;;;6.18;4.55;;;28.90;98.20;;;;;;5157616;27;20678;-72
2022/07/29 04:50:32;;;;;;;6.22;4.63;;;29.00;98.10;;;;;;5157406;27;20046;-72
2022/07/29 04:52:59;;;;;;;7.15;4.63;;;29.10;97.90;;;;;;5140096;27;20060;-72
2022/07/29 04:55:27;;;;;;;7.45;4.25;;;29.20;97.70;;;;;;5175815;27;20042;-72
2022/07/29 04:57:55;;;;;;;5.85;3.88;;;29.30;97.50;;;;;;5157517;27;20103;-72
2022/07/29 05:00:23;;;;;;;7.22;4.75;;;29.50;97.40;;;;;;5175730;27;20046;-71
2022/07/29 05:02:50;;;;;;;7.05;4.35;;;29.60;97.20;;;;;;5139852;27;20122;-72
2022/07/29 05:05:18;;;;;;;5.45;4.28;;;29.60;97.10;;;;;;5122887;27;20138;-72
2022/07/29 05:07:45;;;;;;;5.55;4.60;;;29.70;97.00;;;;;;5157052;27;20042;-72
2022/07/29 05:10:13;;;;;;;6.50;4.47;;;29.80;96.80;;;;;;5175424;27;20081;-72
2022/07/29 05:12:41;;;;;;;6.28;4.60;;;29.90;96.70;;;;;;5156163;27;20049;-71
2022/07/29 05:15:09;;;;;;;8.70;5.35;;;30.00;96.50;;;;;;5156632;27;20122;-72
2022/07/29 05:17:37;;;;;;;9.35;4.25;;;30.00;96.40;;;;;;5174989;27;20077;-72
2022/07/29 05:20:06;;;;;;;7.10;4.70;;;30.10;96.30;;;;;;5139632;27;20037;-72
2022/07/29 05:22:33;;;;;;;6.78;4.63;;;30.20;96.20;;;;;;5156670;27;20113;-71
2022/07/29 05:25:02;;;;;;;6.30;5.15;;;30.20;95.90;;;;;;5156256;27;20042;-72
2022/07/29 05:27:33;;;;;;;6.82;4.45;;;30.30;96.00;;;;;;5172470;27;20092;-72
2022/07/29 05:30:00;;;;;;;11.35;4.65;;;30.40;95.90;;;;;;5155622;27;20410;-71
2022/07/29 05:32:28;;;;;;;9.48;4.97;;;30.50;95.50;;;;;;5155839;27;20041;-72
2022/07/29 05:34:56;;;;;;;7.80;4.90;;;30.60;95.30;;;;;;5174721;27;20909;-72
2022/07/29 05:37:23;;;;;;;9.50;5.05;;;30.70;95.10;;;;;;5156361;27;20073;-72
2022/07/29 05:39:51;;;;;;;7.43;4.75;;;30.70;94.80;;;;;;5135475;27;20050;-72
2022/07/29 05:42:19;;;;;;;6.22;4.22;;;30.80;94.70;;;;;;5153008;27;20039;-72
2022/07/29 05:44:47;;;;;;;10.82;5.07;;;30.90;94.40;;;;;;5135660;27;20046;-72
2022/07/29 05:47:15;;;;;;;7.88;4.70;;;31.00;94.10;;;;;;5135278;27;20137;-72
2022/07/29 05:49:45;;;;;;;8.68;4.13;;;31.10;93.90;;;;;;5154041;27;20463;-72
2022/07/29 05:52:14;;;;;;;7.85;4.78;;;31.20;93.60;;;;;;5152682;27;20035;-72
2022/07/29 05:54:43;;;;;;;9.05;4.43;;;31.40;93.10;;;;;;5152438;27;20133;-72
2022/07/29 05:57:22;;;;;;;6.75;4.25;;;31.50;92.70;;;;;;5134797;27;20434;-72
2022/07/29 05:59:51;;;;;;;5.95;3.95;;;31.50;92.10;;;;;;5153120;27;20039;-72
2022/07/29 06:02:19;;;;;;;5.05;3.92;;;31.60;92.10;;;;;;5151821;27;20058;-72
2022/07/29 06:04:47;;;;;;;5.38;4.40;;;31.60;91.70;;;;;;5153422;27;20070;-72
2022/07/29 06:07:14;;;;;;;6.80;4.63;;;31.50;91.20;;;;;;5152769;27;20035;-71
2022/07/29 06:09:42;;;;;;;6.35;4.38;;;31.70;91.10;;;;;;5151852;27;20516;-72
2022/07/29 06:12:09;;;;;;;7.00;4.57;;;31.70;90.30;;;;;;5151744;27;20050;-72
2022/07/29 06:14:38;;;;;;;5.40;4.38;;;31.90;90.30;;;;;;5114465;27;20050;-72
2022/07/29 06:17:05;;;;;;;6.00;3.92;;;32.00;90.10;;;;;;5133031;27;20043;-72
2022/07/29 06:19:36;;;;;;;6.90;4.45;;;32.10;89.60;;;;;;5132253;27;20832;-72
2022/07/29 06:22:04;;;;;;;6.05;3.90;;;32.30;87.50;;;;;;5132125;27;20727;-72
2022/07/29 06:24:31;;;;;;;4.43;3.30;;;32.40;85.40;;;;;;5132535;27;20088;-72
2022/07/29 06:26:59;;;;;;;8.27;4.03;;;32.60;84.70;;;;;;5114098;27;20043;-72
2022/07/29 06:29:27;;;;;;;5.82;4.07;;;32.70;83.50;;;;;;5131264;27;20050;-72
2022/07/29 06:31:54;;;;;;;5.63;3.20;;;32.70;82.70;;;;;;5130711;27;20516;-72
2022/07/29 06:34:22;;;;;;;6.47;4.18;;;32.70;82.40;;;;;;5132865;27;20489;-72
2022/07/29 06:36:50;;;;;;;5.95;3.83;;;32.80;81.70;;;;;;5097093;27;20050;-72
2022/07/29 06:39:17;;;;;;;5.18;3.88;;;32.80;81.70;;;;;;5139086;27;20103;-72
2022/07/29 06:41:49;;;;;;;6.78;3.50;;;32.80;81.00;;;;;;5134653;27;20113;-72
2022/07/29 06:44:17;;;;;;;6.57;4.05;;;32.90;81.30;;;;;;5101115;27;20165;-72
2022/07/29 06:46:48;;;;;;;4.13;3.72;;;33.00;81.50;;;;;;5100977;27;20054;-72
2022/07/29 06:49:16;;;;;;;6.30;3.50;;;33.20;80.70;;;;;;5134850;27;20385;-72
2022/07/29 06:51:44;;;;;;;7.75;2.95;;;33.10;80.00;;;;;;5099970;27;20489;-72
2022/07/29 06:54:11;;;;;;;6.07;3.78;;;33.30;80.20;;;;;;5134234;27;20042;-73
2022/07/29 06:56:41;;;;;;;7.57;4.20;;;33.40;79.80;;;;;;5116993;27;20047;-71
2022/07/29 06:59:10;;;;;;;5.95;3.45;;;33.40;79.70;;;;;;5152551;27;20061;-71
2022/07/29 07:01:43;;;;;;;4.78;3.75;;;33.60;78.50;;;;;;5117098;27;20073;-71
2022/07/29 07:04:11;;;;;;;6.47;3.92;;;33.60;78.20;;;;;;5100153;27;20103;-71
2022/07/29 07:06:39;;;;;;;5.82;3.70;;;33.60;77.40;;;;;;5152978;27;20046;-70
2022/07/29 07:09:07;;;;;;;5.03;3.53;;;33.60;78.10;;;;;;5133071;27;20078;-71
2022/07/29 07:11:34;;;;;;;5.88;4.07;;;33.60;78.80;;;;;;5134185;27;20400;-71
2022/07/29 07:14:02;;;;;;;5.63;3.72;;;33.60;77.50;;;;;;5117413;27;20050;-71
2022/07/29 07:16:31;;;;;;;5.07;3.72;;;33.60;77.50;;;;;;5133898;27;20142;-71
2022/07/29 07:18:59;;;;;;;7.18;3.90;;;33.60;77.50;;;;;;5133797;27;20051;-71
2022/07/29 07:21:26;;;;;;;7.55;3.40;;;33.60;77.40;;;;;;5134232;27;20051;-71
2022/07/29 07:23:54;;;;;;;4.57;3.22;;;33.70;77.10;;;;;;5152021;27;20704;-71
2022/07/29 07:26:21;;;;;;;4.80;3.92;;;33.60;77.10;;;;;;5133999;27;20051;-71
2022/07/29 07:28:49;;;;;;;4.97;3.42;;;33.80;77.60;;;;;;5133206;27;20123;-71
2022/07/29 07:31:17;;;;;;;6.30;4.00;;;33.80;77.40;;;;;;5151932;27;20081;-71
2022/07/29 07:33:44;;;;;;;5.80;3.65;;;34.00;77.20;;;;;;5152228;27;20125;-71
2022/07/29 07:36:12;;;;;;;5.40;3.53;;;34.10;76.90;;;;;;5116618;27;20054;-71
2022/07/29 07:38:40;;;;;;;5.63;3.75;;;34.20;77.20;;;;;;5116935;27;20052;-71
2022/07/29 07:41:08;;;;;;;4.20;3.45;;;34.30;76.20;;;;;;5133602;27;20043;-71
2022/07/29 07:43:35;;;;;;;4.65;3.28;;;34.50;76.60;;;;;;5115737;27;20094;-71
2022/07/29 07:46:03;;;;;;;4.35;3.30;;;34.60;76.50;;;;;;5115884;27;20396;-72
2022/07/29 07:48:30;;;;;;;4.95;3.40;;;34.60;76.40;;;;;;5151797;27;20035;-71
2022/07/29 07:50:58;;;;;;;4.90;3.13;;;34.70;76.50;;;;;;5151910;27;20046;-73
2022/07/29 07:53:26;;;;;;;4.20;3.08;;;34.70;77.10;;;;;;5116530;27;20046;-71
2022/07/29 07:55:53;;;;;;;4.50;3.08;;;34.80;76.30;;;;;;5132951;27;20072;-72
2022/07/29 07:58:38;;;;;;;5.90;3.25;;;34.70;76.60;;;;;;5151589;27;20189;-71
2022/07/29 08:01:06;;;;;;;5.15;3.30;;;34.60;76.80;;;;;;5151622;27;20042;-71
2022/07/29 08:03:34;;;;;;;6.22;3.47;;;34.50;75.90;;;;;;5166837;27;20050;-71
2022/07/29 08:06:02;;;;;;;6.47;3.80;;;34.60;76.30;;;;;;5153900;27;20048;-72
2022/07/29 08:08:31;;;;;;;5.25;3.72;;;34.60;77.70;;;;;;5119989;27;20050;-72
2022/07/29 08:10:58;;;;;;;7.80;3.92;;;34.50;77.80;;;;;;5172569;27;20068;-71
2022/07/29 08:13:28;;;;;;;4.53;3.60;;;34.60;77.90;;;;;;5153696;27;20094;-71
2022/07/29 08:16:00;;;;;;;4.68;3.55;;;34.80;77.90;;;;;;5172536;27;20057;-71
2022/07/29 08:18:30;;;;;;;4.47;3.03;;;34.80;77.90;;;;;;5137107;27;20063;-72
2022/07/29 08:20:58;;;;;;;4.53;3.10;;;34.60;77.60;;;;;;5172818;27;20049;-72
2022/07/29 08:23:26;;;;;;;4.10;3.00;;;34.70;77.90;;;;;;5153822;27;20038;-72
2022/07/29 08:25:57;;;;;;;8.00;3.65;;;34.80;78.20;;;;;;5154383;27;20050;-72
2022/07/29 08:28:25;;;;;;;4.47;3.40;;;34.80;78.20;;;;;;5153865;27;20349;-72
2022/07/29 08:30:52;;;;;;;6.53;3.47;;;34.90;77.90;;;;;;5172391;27;20112;-71
2022/07/29 08:33:20;;;;;;;4.95;3.92;;;35.00;77.20;;;;;;5154037;27;20042;-71
2022/07/29 08:35:49;;;;;;;7.18;3.45;;;35.10;76.30;;;;;;5119664;27;20095;-71
2022/07/29 08:38:17;;;;;;;5.05;3.47;;;35.10;77.30;;;;;;5153724;27;20046;-71
2022/07/29 08:40:45;;;;;;;4.53;3.47;;;35.00;77.60;;;;;;5152893;27;20058;-71
2022/07/29 08:43:13;;;;;;;5.43;3.35;;;35.00;77.40;;;;;;5154229;27;20051;-71
2022/07/29 08:45:50;;;;;;;4.80;2.90;;;35.00;77.40;;;;;;5153802;27;20050;-72
2022/07/29 08:48:24;;;;;;;4.10;3.15;;;35.00;76.20;;;;;;5172077;27;20078;-72
2022/07/29 08:50:56;;;;;;;4.53;2.95;;;34.90;74.80;;;;;;5172391;27;20129;-72
2022/07/29 08:53:26;;;;;;;3.90;2.75;;;34.80;75.10;;;;;;5119099;27;20042;-72
2022/07/29 08:55:55;;;;;;;4.22;2.90;;;34.90;75.60;;;;;;5153225;27;20046;-72
2022/07/29 08:58:24;;;;;;;5.45;3.10;;;34.80;74.40;;;;;;5136328;27;20043;-72
2022/07/29 09:00:56;;;;;;;5.03;3.08;;;35.00;74.70;;;;;;5153852;27;20042;-73
2022/07/29 09:03:27;;;;;;;4.43;2.97;;;35.00;73.50;;;;;;5151541;27;20035;-72
2022/07/29 09:05:54;;;;;;;5.95;3.33;;;35.00;73.10;;;;;;5119074;27;20496;-72
2022/07/29 09:08:23;;;;;;;4.00;2.78;;;35.10;73.90;;;;;;5136886;27;20484;-72
2022/07/29 09:10:51;;;;;;;5.53;3.22;;;35.30;73.90;;;;;;5153936;27;20038;-72
2022/07/29 09:13:19;;;;;;;5.38;3.17;;;35.30;73.40;;;;;;5153920;27;20046;-72
2022/07/29 09:15:46;;;;;;;4.07;2.85;;;35.40;72.70;;;;;;5135896;27;20506;-72
2022/07/29 09:18:50;;;;;;;3.47;2.95;;;35.50;72.50;;;;;;5152992;27;20043;-72
2022/07/29 09:24:13;;;;;;;5.75;3.20;;;35.60;72.50;;;;;;5147253;27;20088;-72
2022/07/29 09:26:43;;;;;;;3.67;2.80;;;35.60;72.10;;;;;;5153506;27;20042;-72
2022/07/29 09:29:14;;;;;;;4.03;2.92;;;35.60;71.60;;;;;;5119204;27;20518;-73
2022/07/29 09:31:44;;;;;;;6.25;3.13;;;35.50;70.90;;;;;;5155695;27;20187;-73
2022/07/29 09:34:14;;;;;;;5.57;4.22;;;35.60;70.90;;;;;;5122965;27;20057;-73
2022/07/29 09:36:46;;;;;;;6.07;3.05;;;35.60;71.40;;;;;;5139714;27;20050;-72
2022/07/29 09:39:15;;;;;;;5.68;3.30;;;35.60;71.40;;;;;;5136311;27;20066;-72
2022/07/29 09:41:48;;;;;;;6.05;3.50;;;35.70;72.20;;;;;;5118065;27;20095;-72
2022/07/29 09:44:16;;;;;;;5.68;3.08;;;35.80;72.00;;;;;;5136854;27;20046;-72
2022/07/29 09:47:05;;;;;;;4.72;3.03;;;35.60;73.20;;;;;;5136603;27;20070;-71
2022/07/29 09:49:53;;;;;;;5.35;3.25;;;35.60;73.90;;;;;;5153285;27;20224;-71
2022/07/29 09:52:21;;;;;;;6.22;3.67;;;35.50;74.90;;;;;;5130397;27;20039;-72
2022/07/29 09:54:49;;;;;;;6.82;3.85;;;35.50;75.10;;;;;;5099123;27;20057;-72
2022/07/29 09:57:28;;;;;;;4.22;3.45;;;35.50;74.70;;;;;;5115507;27;20043;-72
2022/07/29 09:59:58;;;;;;;4.30;3.45;;;35.50;73.60;;;;;;5132109;27;20620;-71
2022/07/29 10:02:34;;;;;;;4.10;3.15;;;35.40;74.70;;;;;;5098290;27;20394;-72
2022/07/29 10:05:05;;;;;;;5.82;3.97;;;35.10;75.90;;;;;;5132553;27;20071;-72
2022/07/29 10:07:47;;;;;;;5.50;2.70;;;35.00;75.80;;;;;;5098408;27;20051;-72
2022/07/29 10:10:25;;;;;;;6.13;3.10;;;35.00;74.10;;;;;;5098851;27;20039;-72
2022/07/29 10:12:57;;;;;;;;;;;35.20;73.60;;;;;;5132670;27;20296;-72
2022/07/29 10:15:28;;;;;;;4.35;3.15;;;35.20;75.30;;;;;;5115252;27;20497;-71
2022/07/29 10:17:56;;;;;;;5.22;3.30;;;35.30;75.60;;;;;;5132329;27;20051;-71
2022/07/29 10:20:25;;;;;;;6.05;3.20;;;35.30;73.40;;;;;;5132252;27;20062;-72
2022/07/29 10:22:54;;;;;;;5.00;3.70;;;35.40;72.50;;;;;;5115585;27;20047;-72
2022/07/29 10:25:23;;;;;;;5.20;3.55;;;35.40;73.80;;;;;;5131952;27;20513;-73
2022/07/29 10:27:51;;;;;;;3.90;3.30;;;35.40;73.30;;;;;;5133096;27;20724;-72
2022/07/29 10:30:21;;;;;;;6.32;3.08;;;35.40;74.30;;;;;;5115224;27;20051;-72
2022/07/29 10:33:21;;;;;;;5.30;2.80;;;35.30;73.20;;;;;;5114654;27;20047;-72
2022/07/29 10:36:00;;;;;;;4.90;2.80;;;35.40;70.90;;;;;;5106052;27;20063;-73
2022/07/29 10:38:28;;;;;;;4.68;3.28;;;35.40;71.20;;;;;;5135760;27;20096;-71
2022/07/29 10:41:27;;;;;;;5.07;3.08;;;35.40;71.60;;;;;;5156391;27;20041;-71
2022/07/29 10:43:58;;;;;;;4.30;3.25;;;35.40;71.80;;;;;;5120657;27;20046;-71
2022/07/29 10:46:27;;;;;;;5.60;3.63;;;35.50;71.50;;;;;;5174466;27;20058;-72
2022/07/29 10:49:06;;;;;;;4.88;3.53;;;35.50;71.30;;;;;;5156267;27;20056;-73
2022/07/29 10:52:00;;;;;;;5.05;2.78;;;35.50;71.20;;;;;;5138635;27;20046;-72
2022/07/29 10:54:51;;;;;;;4.80;3.05;;;35.30;71.10;;;;;;5138470;27;20077;-72
2022/07/29 10:57:22;;;;;;;4.55;3.40;;;35.40;71.80;;;;;;5138669;27;20506;-71
2022/07/29 11:00:14;;;;;;;3.85;3.10;;;35.40;71.90;;;;;;5138450;27;20046;-72
2022/07/29 11:02:43;;;;;;;6.70;3.03;;;35.20;71.10;;;;;;5129606;27;20050;-72
2022/07/29 11:05:19;;;;;;;4.68;3.28;;;35.30;71.90;;;;;;5138241;27;20522;-71
2022/07/29 11:08:08;;;;;;;4.53;2.92;;;35.30;71.40;;;;;;5121429;27;20061;-72
2022/07/29 11:10:38;;;;;;;3.97;2.78;;;35.30;71.10;;;;;;5173603;27;20126;-71
2022/07/29 11:13:06;;;;;;;4.10;2.83;;;35.30;71.70;;;;;;5173930;27;20456;-71
2022/07/29 11:15:54;;;;;;;4.32;2.80;;;35.30;71.40;;;;;;5155016;27;20041;-72
2022/07/29 11:18:22;;;;;;;5.07;3.05;;;35.30;70.40;;;;;;5120560;27;20526;-73
2022/07/29 11:20:53;;;;;;;4.05;2.75;;;35.20;70.70;;;;;;5155038;27;20046;-72
2022/07/29 11:23:26;;;;;;;6.93;3.20;;;35.30;70.80;;;;;;5173720;27;20077;-71
2022/07/29 11:26:23;;;;;;;4.47;3.33;;;35.20;70.70;;;;;;5155057;27;20496;-71
2022/07/29 11:29:05;;;;;;;4.45;2.65;;;35.20;71.40;;;;;;5173906;27;20488;-72
2022/07/29 11:31:42;;;;;;;6.50;2.95;;;35.20;71.00;;;;;;5154800;27;20126;-72
2022/07/29 11:34:22;;;;;;;4.82;2.60;;;35.20;70.20;;;;;;5120736;27;20050;-71
2022/07/29 11:37:09;;;;;;;5.55;2.95;;;35.20;69.50;;;;;;5120655;27;20078;-71
2022/07/29 11:39:52;;;;;;;3.60;2.70;;;35.10;70.10;;;;;;5154662;27;20057;-71
2022/07/29 11:42:20;;;;;;;5.22;2.95;;;35.00;69.00;;;;;;5120094;27;20526;-71
2022/07/29 11:45:15;;;;;;;4.65;3.17;;;34.90;68.40;;;;;;5172918;27;20050;-71
2022/07/29 11:47:46;;;;;;;5.47;2.90;;;35.00;68.40;;;;;;5136773;27;20053;-71
2022/07/29 11:50:16;;;;;;;4.88;2.67;;;35.00;69.60;;;;;;5173135;27;20348;-72
2022/07/29 11:52:46;;;;;;;5.10;2.88;;;35.00;70.10;;;;;;5137750;27;20394;-71
2022/07/29 11:55:17;;;;;;;5.68;4.00;;;35.00;70.50;;;;;;5137207;27;20045;-71
2022/07/29 11:57:50;;;;;;;6.82;3.30;;;34.90;70.80;;;;;;5137378;27;20091;-72
2022/07/29 12:00:27;;;;;;;4.07;3.08;;;34.90;70.40;;;;;;5155128;27;20459;-71
2022/07/29 12:02:57;;;;;;;5.35;4.10;;;34.90;70.80;;;;;;5137152;27;20045;-71
2022/07/29 12:05:45;;;;;;;8.63;4.38;;;34.90;71.90;;;;;;5137357;27;20053;-71
2022/07/29 12:08:21;;;;;;;5.57;3.35;;;34.80;72.60;;;;;;5154251;27;20073;-71
2022/07/29 12:10:50;;;;;;;3.45;2.70;;;34.80;71.90;;;;;;5154663;27;20064;-71
2022/07/29 12:13:20;;;;;;;7.85;2.88;;;34.80;71.20;;;;;;5137019;27;20046;-71
2022/07/29 12:15:56;;;;;;;10.00;3.45;;;34.70;72.40;;;;;;5172727;27;20038;-73
2022/07/29 12:18:24;;;;;;;4.30;2.97;;;34.70;72.60;;;;;;5128359;27;20038;-71
2022/07/29 12:21:03;;;;;;;4.15;3.13;;;34.60;72.20;;;;;;5113530;27;20050;-72
2022/07/29 12:23:32;;;;;;;4.70;2.78;;;34.60;73.30;;;;;;5121673;27;20051;-72
2022/07/29 12:26:00;;;;;;;4.28;3.25;;;34.60;73.70;;;;;;5113114;27;20046;-72
2022/07/29 12:28:28;;;;;;;4.47;3.08;;;34.60;74.90;;;;;;5123620;27;20057;-71
2022/07/29 12:30:59;;;;;;;4.05;3.45;;;34.60;74.30;;;;;;5142707;27;20042;-71
2022/07/29 12:33:30;;;;;;;5.38;2.92;;;34.50;74.20;;;;;;5112344;27;20090;-72
2022/07/29 12:36:00;;;;;;;4.28;2.92;;;34.60;74.50;;;;;;5144177;27;20107;-70
2022/07/29 12:38:40;;;;;;;4.90;3.30;;;34.50;74.00;;;;;;5129764;27;20058;-71
2022/07/29 12:41:08;;;;;;;5.43;3.05;;;34.40;74.30;;;;;;5109030;27;20142;-72
2022/07/29 12:43:37;;;;;;;4.75;3.00;;;34.40;74.40;;;;;;5122431;27;20762;-72
2022/07/29 12:46:14;;;;;;;4.75;2.63;;;34.30;75.00;;;;;;5120918;27;20066;-73
2022/07/29 12:48:43;;;;;;;4.75;3.13;;;34.30;74.60;;;;;;5129105;27;20054;-71
2022/07/29 12:51:14;;;;;;;4.60;2.78;;;34.30;74.90;;;;;;5132574;27;20047;-71
2022/07/29 12:54:01;;;;;;;5.60;3.35;;;34.30;75.00;;;;;;5131714;27;20047;-72
2022/07/29 12:56:29;;;;;;;4.47;2.83;;;34.30;74.70;;;;;;5160503;27;20035;-72
2022/07/29 12:59:17;;;;;;;5.82;3.35;;;34.40;74.90;;;;;;5121714;27;20042;-71
2022/07/29 13:01:48;;;;;;;4.30;3.00;;;34.30;74.80;;;;;;5132153;27;20051;-72
2022/07/29 13:04:36;;;;;;;4.82;2.78;;;34.30;74.30;;;;;;5157251;27;20049;-72
2022/07/29 13:07:07;;;;;;;7.38;2.83;;;34.20;73.40;;;;;;5134781;27;20042;-73
2022/07/29 13:09:48;;;;;;;4.68;2.67;;;34.20;73.70;;;;;;5138635;27;20075;-73
2022/07/29 13:12:17;;;;;;;3.55;2.30;;;34.20;73.80;;;;;;5137493;27;20501;-72